createdAt,value
2023-02-23T00:00:27.262Z,1004.58
2023-02-23T00:01:27.254Z,1004.56
2023-02-23T00:02:27.304Z,1004.57
2023-02-23T00:03:27.273Z,1004.55
2023-02-23T00:04:27.219Z,1004.52
2023-02-23T00:05:27.197Z,1004.54
2023-02-23T00:06:27.209Z,1004.55
2023-02-23T00:07:27.183Z,1004.57
2023-02-23T00:08:27.168Z,1004.56
2023-02-23T00:09:27.150Z,1004.56
2023-02-23T00:10:27.151Z,1004.54
2023-02-23T00:11:27.300Z,1004.58
2023-02-23T00:12:27.118Z,1004.53
2023-02-23T00:13:27.112Z,1004.58
2023-02-23T00:14:27.108Z,1004.57
2023-02-23T00:15:27.100Z,1004.54
2023-02-23T00:16:27.131Z,1004.50
2023-02-23T00:17:27.067Z,1004.52
2023-02-23T00:18:27.093Z,1004.56
2023-02-23T00:19:27.044Z,1004.52
2023-02-23T00:20:27.037Z,1004.55
2023-02-23T00:21:27.039Z,1004.54
2023-02-23T00:22:27.010Z,1004.52
2023-02-23T00:23:26.994Z,1004.58
2023-02-23T00:24:27.139Z,1004.55
2023-02-23T00:25:26.979Z,1004.55
2023-02-23T00:26:26.966Z,1004.57
2023-02-23T00:27:26.997Z,1004.56
2023-02-23T00:28:26.957Z,1004.52
2023-02-23T00:29:26.928Z,1004.52
2023-02-23T00:30:27.662Z,1004.53
2023-02-23T00:31:26.960Z,1004.52
2023-02-23T00:32:27.037Z,1004.49
2023-02-23T00:33:26.903Z,1004.52
2023-02-23T00:34:26.899Z,1004.50
2023-02-23T00:35:26.868Z,1004.48
2023-02-23T00:36:26.869Z,1004.48
2023-02-23T00:37:26.845Z,1004.47
2023-02-23T00:38:26.835Z,1004.48
2023-02-23T00:39:26.904Z,1004.47
2023-02-23T00:40:26.836Z,1004.46
2023-02-23T00:41:26.816Z,1004.44
2023-02-23T00:42:26.791Z,1004.44
2023-02-23T00:43:26.805Z,1004.44
2023-02-23T00:44:26.807Z,1004.44
2023-02-23T00:45:26.763Z,1004.45
2023-02-23T00:46:26.749Z,1004.43
2023-02-23T00:47:26.747Z,1004.45
2023-02-23T00:48:26.739Z,1004.46
2023-02-23T00:49:26.728Z,1004.42
2023-02-23T00:50:26.724Z,1004.40
2023-02-23T00:51:26.693Z,1004.43
2023-02-23T00:52:26.705Z,1004.43
2023-02-23T00:53:26.670Z,1004.45
2023-02-23T00:54:26.663Z,1004.44
2023-02-23T00:55:26.644Z,1004.43
2023-02-23T00:56:26.638Z,1004.44
2023-02-23T00:57:26.636Z,1004.44
2023-02-23T00:58:26.640Z,1004.41
2023-02-23T00:59:26.626Z,1004.44
2023-02-23T01:00:26.622Z,1004.44
2023-02-23T01:01:26.695Z,1004.45
2023-02-23T01:02:26.602Z,1004.41
2023-02-23T01:03:26.579Z,1004.42
2023-02-23T01:04:26.573Z,1004.42
2023-02-23T01:05:26.534Z,1004.48
2023-02-23T01:06:26.548Z,1004.43
2023-02-23T01:07:26.530Z,1004.42
2023-02-23T01:08:26.500Z,1004.43
2023-02-23T01:09:26.501Z,1004.42
2023-02-23T01:10:26.490Z,1004.41
2023-02-23T01:11:26.462Z,1004.43
2023-02-23T01:12:26.467Z,1004.42
2023-02-23T01:13:26.453Z,1004.38
2023-02-23T01:14:26.456Z,1004.41
2023-02-23T01:15:26.505Z,1004.42
2023-02-23T01:16:26.413Z,1004.39
2023-02-23T01:17:26.408Z,1004.42
2023-02-23T01:18:26.398Z,1004.39
2023-02-23T01:19:26.390Z,1004.39
2023-02-23T01:20:27.470Z,1004.41
2023-02-23T01:21:26.363Z,1004.33
2023-02-23T01:22:26.365Z,1004.36
2023-02-23T01:23:26.329Z,1004.37
2023-02-23T01:24:26.320Z,1004.41
2023-02-23T01:25:26.308Z,1004.36
2023-02-23T01:26:26.292Z,1004.36
2023-02-23T01:27:26.288Z,1004.37
2023-02-23T01:28:26.282Z,1004.38
2023-02-23T01:29:26.264Z,1004.34
2023-02-23T01:30:26.300Z,1004.34
2023-02-23T01:31:26.391Z,1004.36
2023-02-23T01:32:26.286Z,1004.35
2023-02-23T01:33:26.241Z,1004.31
2023-02-23T01:34:26.222Z,1004.36
2023-02-23T01:35:26.207Z,1004.29
2023-02-23T01:36:26.203Z,1004.29
2023-02-23T01:37:26.183Z,1004.31
2023-02-23T01:38:26.169Z,1004.31
2023-02-23T01:39:26.146Z,1004.30
2023-02-23T01:40:26.137Z,1004.27
2023-02-23T01:41:26.155Z,1004.29
2023-02-23T01:42:26.129Z,1004.31
2023-02-23T01:43:26.217Z,1004.29
2023-02-23T01:44:26.108Z,1004.31
2023-02-23T01:45:26.111Z,1004.28
2023-02-23T01:46:26.092Z,1004.31
2023-02-23T01:47:26.100Z,1004.29
2023-02-23T01:48:26.052Z,1004.30
2023-02-23T01:49:26.109Z,1004.28
2023-02-23T01:50:26.045Z,1004.27
2023-02-23T01:51:26.042Z,1004.28
2023-02-23T01:52:26.010Z,1004.28
2023-02-23T01:53:25.999Z,1004.27
2023-02-23T01:54:26.007Z,1004.28
2023-02-23T01:55:25.984Z,1004.28
2023-02-23T01:56:25.991Z,1004.22
2023-02-23T01:57:25.961Z,1004.24
2023-02-23T01:58:25.965Z,1004.23
2023-02-23T01:59:25.953Z,1004.21
2023-02-23T02:00:25.952Z,1004.26
2023-02-23T02:01:25.969Z,1004.25
2023-02-23T02:02:25.938Z,1004.23
2023-02-23T02:03:25.946Z,1004.21
2023-02-23T02:04:25.897Z,1004.19
2023-02-23T02:05:25.919Z,1004.20
2023-02-23T02:06:25.863Z,1004.18
2023-02-23T02:07:25.894Z,1004.18
2023-02-23T02:08:25.828Z,1004.18
2023-02-23T02:09:25.826Z,1004.18
2023-02-23T02:10:25.837Z,1004.15
2023-02-23T02:11:26.012Z,1004.18
2023-02-23T02:12:25.824Z,1004.18
2023-02-23T02:13:25.799Z,1004.17
2023-02-23T02:14:25.762Z,1004.18
2023-02-23T02:15:25.765Z,1004.17
2023-02-23T02:16:25.777Z,1004.14
2023-02-23T02:17:25.742Z,1004.17
2023-02-23T02:18:25.731Z,1004.15
2023-02-23T02:19:25.733Z,1004.15
2023-02-23T02:20:25.697Z,1004.18
2023-02-23T02:21:25.693Z,1004.17
2023-02-23T02:22:25.703Z,1004.17
2023-02-23T02:23:25.686Z,1004.12
2023-02-23T02:24:25.680Z,1004.12
2023-02-23T02:25:25.663Z,1004.12
2023-02-23T02:26:25.678Z,1004.13
2023-02-23T02:27:25.642Z,1004.13
2023-02-23T02:28:25.630Z,1004.09
2023-02-23T02:29:25.616Z,1004.09
2023-02-23T02:30:25.656Z,1004.09
2023-02-23T02:31:25.656Z,1004.09
2023-02-23T02:32:25.643Z,1004.11
2023-02-23T02:33:25.573Z,1004.12
2023-02-23T02:34:25.567Z,1004.08
2023-02-23T02:35:25.583Z,1004.07
2023-02-23T02:38:36.551Z,1004.09
2023-02-23T02:39:36.597Z,1004.06
2023-02-23T02:40:36.528Z,1004.05
2023-02-23T02:41:36.525Z,1004.07
2023-02-23T02:42:36.516Z,1004.06
2023-02-23T02:43:36.487Z,1004.05
2023-02-23T02:44:36.507Z,1004.05
2023-02-23T02:45:36.492Z,1004.04
2023-02-23T02:46:44.244Z,1004.03
2023-02-23T02:47:36.442Z,1004.02
2023-02-23T02:48:36.452Z,1004.00
2023-02-23T02:49:36.435Z,1004.06
2023-02-23T02:50:36.480Z,1004.00
2023-02-23T02:51:36.418Z,1004.01
2023-02-23T02:52:36.407Z,1004.01
2023-02-23T02:53:36.409Z,1004.00
2023-02-23T02:54:36.372Z,1003.97
2023-02-23T02:55:36.373Z,1004.00
2023-02-23T02:56:36.349Z,1004.00
2023-02-23T02:57:36.358Z,1004.02
2023-02-23T02:58:36.325Z,1003.97
2023-02-23T02:59:36.337Z,1004.03
2023-02-23T03:00:36.316Z,1004.01
2023-02-23T03:01:36.329Z,1003.99
2023-02-23T03:02:36.283Z,1004.01
2023-02-23T03:03:36.273Z,1003.99
2023-02-23T03:04:36.258Z,1003.98
2023-02-23T03:05:36.271Z,1003.97
2023-02-23T03:06:36.274Z,1003.99
2023-02-23T03:07:36.229Z,1003.96
2023-02-23T03:08:36.237Z,1003.96
2023-02-23T03:09:36.209Z,1003.96
2023-02-23T03:10:36.192Z,1003.99
2023-02-23T03:11:36.214Z,1003.95
2023-02-23T03:12:36.184Z,1003.96
2023-02-23T03:13:36.171Z,1003.96
2023-02-23T03:14:36.162Z,1003.99
2023-02-23T03:15:36.154Z,1004.00
2023-02-23T03:16:36.156Z,1004.00
2023-02-23T03:17:38.396Z,1004.02
2023-02-23T03:18:36.117Z,1004.00
2023-02-23T03:19:36.097Z,1004.00
2023-02-23T03:20:36.080Z,1003.98
2023-02-23T03:21:36.089Z,1004.01
2023-02-23T03:22:36.102Z,1003.97
2023-02-23T03:23:36.067Z,1004.00
2023-02-23T03:24:36.036Z,1004.00
2023-02-23T03:25:36.038Z,1003.99
2023-02-23T03:26:36.033Z,1004.00
2023-02-23T03:27:36.022Z,1004.02
2023-02-23T03:28:36.006Z,1004.01
2023-02-23T03:29:36.012Z,1003.97
2023-02-23T03:30:36.037Z,1004.03
2023-02-23T03:31:36.122Z,1004.02
2023-02-23T03:32:36.013Z,1004.06
2023-02-23T03:33:35.957Z,1004.04
2023-02-23T03:34:35.944Z,1004.02
2023-02-23T03:35:35.913Z,1004.02
2023-02-23T03:36:35.915Z,1004.02
2023-02-23T03:37:35.894Z,1004.05
2023-02-23T03:38:35.924Z,1004.03
2023-02-23T03:39:35.889Z,1004.04
2023-02-23T03:40:35.873Z,1004.04
2023-02-23T03:41:35.850Z,1004.03
2023-02-23T03:42:35.863Z,1004.02
2023-02-23T03:43:35.841Z,1004.04
2023-02-23T03:44:35.841Z,1004.02
2023-02-23T03:45:35.864Z,1004.03
2023-02-23T03:46:35.821Z,1004.04
2023-02-23T03:47:35.826Z,1004.07
2023-02-23T03:48:35.787Z,1004.08
2023-02-23T03:49:35.759Z,1004.06
2023-02-23T03:50:35.764Z,1004.04
2023-02-23T03:51:35.759Z,1004.06
2023-02-23T03:52:35.747Z,1004.06
2023-02-23T03:53:35.724Z,1004.08
2023-02-23T03:54:35.744Z,1004.10
2023-02-23T03:55:35.709Z,1004.10
2023-02-23T03:56:35.723Z,1004.09
2023-02-23T03:57:35.671Z,1004.10
2023-02-23T03:58:35.674Z,1004.08
2023-02-23T03:59:35.705Z,1004.09
2023-02-23T04:00:35.640Z,1004.10
2023-02-23T04:01:35.645Z,1004.08
2023-02-23T04:02:35.632Z,1004.07
2023-02-23T04:03:35.700Z,1004.10
2023-02-23T04:04:35.602Z,1004.11
2023-02-23T04:05:35.587Z,1004.10
2023-02-23T04:06:35.565Z,1004.11
2023-02-23T04:07:35.560Z,1004.08
2023-02-23T04:08:35.562Z,1004.08
2023-02-23T04:09:35.543Z,1004.13
2023-02-23T04:10:35.610Z,1004.13
2023-02-23T04:11:35.522Z,1004.13
2023-02-23T04:12:35.498Z,1004.17
2023-02-23T04:13:35.508Z,1004.14
2023-02-23T04:14:35.492Z,1004.20
2023-02-23T04:15:35.468Z,1004.11
2023-02-23T04:16:35.489Z,1004.12
2023-02-23T04:17:35.505Z,1004.09
2023-02-23T04:18:35.459Z,1004.14
2023-02-23T04:19:35.442Z,1004.14
2023-02-23T04:20:35.482Z,1004.18
2023-02-23T04:21:35.416Z,1004.19
2023-02-23T04:22:35.413Z,1004.18
2023-02-23T04:23:35.400Z,1004.19
2023-02-23T04:24:35.373Z,1004.19
2023-02-23T04:25:35.378Z,1004.21
2023-02-23T04:26:35.456Z,1004.27
2023-02-23T04:27:35.346Z,1004.18
2023-02-23T04:28:35.342Z,1004.25
2023-02-23T04:29:35.337Z,1004.23
2023-02-23T04:30:35.347Z,1004.21
2023-02-23T04:31:35.476Z,1004.24
2023-02-23T04:32:35.447Z,1004.27
2023-02-23T04:33:35.286Z,1004.24
2023-02-23T04:34:35.274Z,1004.24
2023-02-23T04:35:35.249Z,1004.27
2023-02-23T04:36:35.236Z,1004.29
2023-02-23T04:37:35.244Z,1004.26
2023-02-23T04:38:35.215Z,1004.25
2023-02-23T04:39:35.207Z,1004.27
2023-02-23T04:40:35.218Z,1004.29
2023-02-23T04:41:35.177Z,1004.29
2023-02-23T04:42:35.213Z,1004.31
2023-02-23T04:43:35.175Z,1004.25
2023-02-23T04:44:35.158Z,1004.28
2023-02-23T04:45:35.133Z,1004.31
2023-02-23T04:46:35.160Z,1004.31
2023-02-23T04:47:35.113Z,1004.31
2023-02-23T04:48:35.115Z,1004.35
2023-02-23T04:49:35.089Z,1004.35
2023-02-23T04:50:35.095Z,1004.29
2023-02-23T04:51:35.086Z,1004.34
2023-02-23T04:52:35.101Z,1004.34
2023-02-23T04:53:35.050Z,1004.36
2023-02-23T04:54:35.055Z,1004.36
2023-02-23T04:55:35.032Z,1004.36
2023-02-23T04:56:35.030Z,1004.34
2023-02-23T04:57:35.015Z,1004.36
2023-02-23T04:58:35.021Z,1004.37
2023-02-23T04:59:34.983Z,1004.44
2023-02-23T05:00:35.008Z,1004.41
2023-02-23T05:01:35.038Z,1004.40
2023-02-23T05:02:34.965Z,1004.41
2023-02-23T05:03:34.951Z,1004.42
2023-02-23T05:04:34.971Z,1004.42
2023-02-23T05:05:34.925Z,1004.47
2023-02-23T05:06:34.922Z,1004.46
2023-02-23T05:07:34.907Z,1004.47
2023-02-23T05:08:34.895Z,1004.47
2023-02-23T05:09:34.889Z,1004.49
2023-02-23T05:10:34.870Z,1004.51
2023-02-23T05:11:34.849Z,1004.49
2023-02-23T05:12:34.834Z,1004.52
2023-02-23T05:13:34.853Z,1004.51
2023-02-23T05:14:34.852Z,1004.50
2023-02-23T05:15:34.847Z,1004.52
2023-02-23T05:16:34.804Z,1004.51
2023-02-23T05:17:34.795Z,1004.56
2023-02-23T05:18:34.785Z,1004.58
2023-02-23T05:19:34.776Z,1004.54
2023-02-23T05:20:34.764Z,1004.56
2023-02-23T05:21:34.742Z,1004.56
2023-02-23T05:22:34.740Z,1004.54
2023-02-23T05:23:34.773Z,1004.55
2023-02-23T05:24:34.704Z,1004.59
2023-02-23T05:25:34.704Z,1004.62
2023-02-23T05:26:34.678Z,1004.62
2023-02-23T05:27:34.671Z,1004.64
2023-02-23T05:28:34.682Z,1004.62
2023-02-23T05:29:34.645Z,1004.63
2023-02-23T05:30:34.765Z,1004.69
2023-02-23T05:31:34.788Z,1004.67
2023-02-23T05:32:34.773Z,1004.64
2023-02-23T05:33:34.613Z,1004.66
2023-02-23T05:34:34.594Z,1004.67
2023-02-23T05:35:34.582Z,1004.62
2023-02-23T05:36:34.580Z,1004.69
2023-02-23T05:37:34.571Z,1004.77
2023-02-23T05:38:34.563Z,1004.72
2023-02-23T05:39:34.592Z,1004.69
2023-02-23T05:40:34.539Z,1004.69
2023-02-23T05:41:34.521Z,1004.74
2023-02-23T05:42:34.513Z,1004.79
2023-02-23T05:43:34.503Z,1004.72
2023-02-23T05:44:34.494Z,1004.76
2023-02-23T05:45:34.483Z,1004.73
2023-02-23T05:46:34.511Z,1004.74
2023-02-23T05:47:34.439Z,1004.72
2023-02-23T05:48:34.448Z,1004.71
2023-02-23T05:49:34.422Z,1004.75
2023-02-23T05:50:34.410Z,1004.75
2023-02-23T05:51:34.409Z,1004.80
2023-02-23T05:52:34.383Z,1004.77
2023-02-23T05:53:34.382Z,1004.77
2023-02-23T05:54:34.369Z,1004.76
2023-02-23T05:55:34.351Z,1004.80
2023-02-23T05:56:34.370Z,1004.82
2023-02-23T05:57:34.328Z,1004.79
2023-02-23T05:58:34.319Z,1004.78
2023-02-23T05:59:34.324Z,1004.81
2023-02-23T06:00:34.303Z,1004.81
2023-02-23T06:01:34.341Z,1004.82
2023-02-23T06:02:34.403Z,1004.84
2023-02-23T06:03:34.445Z,1004.75
2023-02-23T06:04:34.273Z,1004.76
2023-02-23T06:05:34.332Z,1004.79
2023-02-23T06:06:34.278Z,1004.73
2023-02-23T06:07:34.236Z,1004.76
2023-02-23T06:08:34.229Z,1004.76
2023-02-23T06:09:34.257Z,1004.76
2023-02-23T06:10:34.244Z,1004.76
2023-02-23T06:11:34.212Z,1004.76
2023-02-23T06:12:34.221Z,1004.76
2023-02-23T06:13:34.188Z,1004.79
2023-02-23T06:14:34.181Z,1004.77
2023-02-23T06:15:34.148Z,1004.78
2023-02-23T06:16:34.291Z,1004.82
2023-02-23T06:17:34.134Z,1004.78
2023-02-23T06:18:34.225Z,1004.79
2023-02-23T06:19:34.108Z,1004.76
2023-02-23T06:20:34.099Z,1004.74
2023-02-23T06:21:34.084Z,1004.75
2023-02-23T06:22:34.095Z,1004.81
2023-02-23T06:23:34.068Z,1004.81
2023-02-23T06:24:34.074Z,1004.86
2023-02-23T06:25:34.026Z,1004.87
2023-02-23T06:26:34.066Z,1004.87
2023-02-23T06:27:34.038Z,1004.88
2023-02-23T06:28:41.822Z,1004.91
2023-02-23T06:29:33.990Z,1004.93
2023-02-23T06:30:34.031Z,1005.00
2023-02-23T06:31:34.113Z,1004.96
2023-02-23T06:32:33.999Z,1005.00
2023-02-23T06:33:33.966Z,1005.00
2023-02-23T06:34:33.961Z,1004.98
2023-02-23T06:35:33.932Z,1005.02
2023-02-23T06:36:33.957Z,1004.97
2023-02-23T06:37:33.911Z,1005.02
2023-02-23T06:38:33.892Z,1004.97
2023-02-23T06:39:33.894Z,1005.05
2023-02-23T06:40:33.855Z,1005.02
2023-02-23T06:41:33.848Z,1005.07
2023-02-23T06:42:33.846Z,1005.08
2023-02-23T06:43:33.846Z,1005.04
2023-02-23T06:44:33.853Z,1005.07
2023-02-23T06:45:33.826Z,1005.08
2023-02-23T06:46:33.875Z,1005.07
2023-02-23T06:47:33.802Z,1005.10
2023-02-23T06:48:33.782Z,1005.14
2023-02-23T06:49:33.783Z,1005.12
2023-02-23T06:50:33.790Z,1005.11
2023-02-23T06:51:33.773Z,1005.17
2023-02-23T06:52:33.744Z,1005.20
2023-02-23T06:53:33.745Z,1005.19
2023-02-23T06:54:33.730Z,1005.19
2023-02-23T06:55:33.712Z,1005.24
2023-02-23T06:56:33.750Z,1005.23
2023-02-23T06:57:33.713Z,1005.27
2023-02-23T06:58:33.666Z,1005.32
2023-02-23T06:59:33.655Z,1005.28
2023-02-23T07:00:33.646Z,1005.33
2023-02-23T07:01:33.668Z,1005.37
2023-02-23T07:02:33.663Z,1005.36
2023-02-23T07:03:33.633Z,1005.33
2023-02-23T07:04:33.605Z,1005.38
2023-02-23T07:05:33.609Z,1005.38
2023-02-23T07:06:33.612Z,1005.36
2023-02-23T07:07:33.601Z,1005.40
2023-02-23T07:08:33.563Z,1005.41
2023-02-23T07:09:33.556Z,1005.44
2023-02-23T07:10:33.575Z,1005.42
2023-02-23T07:11:33.541Z,1005.40
2023-02-23T07:12:33.544Z,1005.47
2023-02-23T07:13:33.490Z,1005.49
2023-02-23T07:14:33.540Z,1005.47
2023-02-23T07:15:33.504Z,1005.50
2023-02-23T07:16:33.499Z,1005.52
2023-02-23T07:17:33.439Z,1005.55
2023-02-23T07:18:33.449Z,1005.53
2023-02-23T07:19:33.503Z,1005.52
2023-02-23T07:20:33.423Z,1005.53
2023-02-23T07:21:33.495Z,1005.58
2023-02-23T07:22:33.442Z,1005.59
2023-02-23T07:23:33.465Z,1005.59
2023-02-23T07:24:33.396Z,1005.63
2023-02-23T07:25:33.494Z,1005.62
2023-02-23T07:26:33.363Z,1005.62
2023-02-23T07:27:34.135Z,1005.63
2023-02-23T07:28:33.336Z,1005.67
2023-02-23T07:29:33.335Z,1005.68
2023-02-23T07:30:33.351Z,1005.69
2023-02-23T07:31:33.357Z,1005.67
2023-02-23T07:32:33.509Z,1005.69
2023-02-23T07:33:33.274Z,1005.67
2023-02-23T07:34:33.281Z,1005.73
2023-02-23T07:35:33.276Z,1005.68
2023-02-23T07:36:33.267Z,1005.72
2023-02-23T07:37:33.241Z,1005.76
2023-02-23T07:38:33.239Z,1005.73
2023-02-23T07:39:33.223Z,1005.74
2023-02-23T07:40:33.207Z,1005.72
2023-02-23T07:41:33.192Z,1005.70
2023-02-23T07:42:33.184Z,1005.71
2023-02-23T07:43:33.186Z,1005.71
2023-02-23T07:44:33.217Z,1005.71
2023-02-23T07:45:33.268Z,1005.69
2023-02-23T07:46:33.156Z,1005.71
2023-02-23T07:47:33.289Z,1005.71
2023-02-23T07:48:33.120Z,1005.72
2023-02-23T07:49:33.106Z,1005.73
2023-02-23T07:50:33.083Z,1005.73
2023-02-23T07:51:33.109Z,1005.74
2023-02-23T07:52:33.068Z,1005.69
2023-02-23T07:53:33.061Z,1005.77
2023-02-23T07:54:33.074Z,1005.75
2023-02-23T07:55:33.032Z,1005.77
2023-02-23T07:56:33.031Z,1005.75
2023-02-23T07:57:33.045Z,1005.77
2023-02-23T07:58:33.012Z,1005.76
2023-02-23T07:59:33.014Z,1005.75
2023-02-23T08:00:32.967Z,1005.73
2023-02-23T08:01:33.026Z,1005.76
2023-02-23T08:02:32.990Z,1005.80
2023-02-23T08:03:32.949Z,1005.78
2023-02-23T08:04:32.992Z,1005.81
2023-02-23T08:05:32.944Z,1005.84
2023-02-23T08:06:32.924Z,1005.79
2023-02-23T08:07:32.928Z,1005.83
2023-02-23T08:08:32.889Z,1005.81
2023-02-23T08:09:32.888Z,1005.81
2023-02-23T08:10:32.906Z,1005.83
2023-02-23T08:11:32.864Z,1005.88
2023-02-23T08:12:32.890Z,1005.82
2023-02-23T08:13:32.885Z,1005.88
2023-02-23T08:14:32.825Z,1005.83
2023-02-23T08:15:32.826Z,1005.88
2023-02-23T08:16:32.872Z,1005.90
2023-02-23T08:17:32.804Z,1005.87
2023-02-23T08:18:32.954Z,1005.91
2023-02-23T08:19:32.800Z,1005.93
2023-02-23T08:20:32.762Z,1005.93
2023-02-23T08:21:32.745Z,1005.93
2023-02-23T08:22:47.151Z,1005.96
2023-02-23T08:23:33.735Z,1006.01
2023-02-23T08:24:32.714Z,1005.98
2023-02-23T08:25:32.774Z,1005.98
2023-02-23T08:26:33.860Z,1006.01
2023-02-23T08:27:32.708Z,1006.04
2023-02-23T08:28:32.667Z,1006.01
2023-02-23T08:29:32.673Z,1006.03
2023-02-23T08:30:32.813Z,1006.01
2023-02-23T08:31:32.871Z,1006.05
2023-02-23T08:32:32.769Z,1006.06
2023-02-23T08:33:32.633Z,1006.04
2023-02-23T08:34:32.605Z,1006.03
2023-02-23T08:35:32.595Z,1006.04
2023-02-23T08:36:32.724Z,1006.01
2023-02-23T08:37:32.650Z,1006.05
2023-02-23T08:38:32.584Z,1006.06
2023-02-23T08:39:32.549Z,1006.06
2023-02-23T08:40:32.533Z,1006.04
2023-02-23T08:41:32.535Z,1006.05
2023-02-23T08:42:32.692Z,1006.11
2023-02-23T08:43:32.501Z,1006.09
2023-02-23T08:44:32.490Z,1006.09
2023-02-23T08:45:32.738Z,1006.11
2023-02-23T08:46:32.500Z,1006.08
2023-02-23T08:47:32.458Z,1006.10
2023-02-23T08:48:32.462Z,1006.10
2023-02-23T08:49:32.435Z,1006.10
2023-02-23T08:50:32.556Z,1006.09
2023-02-23T08:51:32.537Z,1006.12
2023-02-23T08:52:32.406Z,1006.11
2023-02-23T08:53:32.398Z,1006.09
2023-02-23T08:54:32.453Z,1006.10
2023-02-23T08:55:32.381Z,1006.10
2023-02-23T08:56:32.351Z,1006.15
2023-02-23T08:57:32.356Z,1006.05
2023-02-23T08:58:32.337Z,1006.06
2023-02-23T08:59:32.393Z,1006.07
2023-02-23T09:00:32.342Z,1006.09
2023-02-23T09:01:32.372Z,1006.08
2023-02-23T09:02:32.328Z,1006.07
2023-02-23T09:03:32.279Z,1006.07
2023-02-23T09:04:32.258Z,1006.08
2023-02-23T09:05:32.314Z,1006.14
2023-02-23T09:06:32.270Z,1006.11
2023-02-23T09:07:32.333Z,1006.11
2023-02-23T09:08:32.262Z,1006.16
2023-02-23T09:09:32.190Z,1006.14
2023-02-23T09:10:32.205Z,1006.17
2023-02-23T09:11:32.297Z,1006.20
2023-02-23T09:12:32.176Z,1006.22
2023-02-23T09:13:32.167Z,1006.21
2023-02-23T09:14:32.764Z,1006.22
2023-02-23T09:15:32.133Z,1006.21
2023-02-23T09:16:32.131Z,1006.20
2023-02-23T09:17:32.157Z,1006.21
2023-02-23T09:18:32.124Z,1006.24
2023-02-23T09:19:32.095Z,1006.29
2023-02-23T09:20:32.087Z,1006.24
2023-02-23T09:21:32.105Z,1006.24
2023-02-23T09:22:32.046Z,1006.29
2023-02-23T09:23:32.073Z,1006.25
2023-02-23T09:24:32.041Z,1006.27
2023-02-23T09:25:32.034Z,1006.28
2023-02-23T09:26:32.007Z,1006.30
2023-02-23T09:27:32.012Z,1006.31
2023-02-23T09:28:32.075Z,1006.29
2023-02-23T09:29:31.985Z,1006.30
2023-02-23T09:30:32.036Z,1006.36
2023-02-23T09:31:31.980Z,1006.34
2023-02-23T09:32:32.080Z,1006.33
2023-02-23T09:33:31.948Z,1006.30
2023-02-23T09:34:31.915Z,1006.34
2023-02-23T09:35:31.896Z,1006.36
2023-02-23T09:36:31.885Z,1006.37
2023-02-23T09:37:32.645Z,1006.35
2023-02-23T09:38:31.875Z,1006.39
2023-02-23T09:39:38.021Z,1006.40
2023-02-23T09:40:32.927Z,1006.45
2023-02-23T09:41:31.825Z,1006.43
2023-02-23T09:42:31.867Z,1006.48
2023-02-23T09:43:31.840Z,1006.44
2023-02-23T09:44:31.807Z,1006.46
2023-02-23T09:45:31.780Z,1006.44
2023-02-23T09:46:31.844Z,1006.46
2023-02-23T09:47:31.794Z,1006.47
2023-02-23T09:48:31.760Z,1006.50
2023-02-23T09:49:31.755Z,1006.50
2023-02-23T09:50:31.750Z,1006.48
2023-02-23T09:51:31.736Z,1006.52
2023-02-23T09:52:31.753Z,1006.50
2023-02-23T09:53:33.851Z,1006.51
2023-02-23T09:54:31.690Z,1006.50
2023-02-23T09:55:31.720Z,1006.52
2023-02-23T09:56:31.691Z,1006.60
2023-02-23T09:57:31.657Z,1006.47
2023-02-23T09:58:31.654Z,1006.49
2023-02-23T09:59:31.621Z,1006.53
2023-02-23T10:00:31.623Z,1006.53
2023-02-23T10:01:31.889Z,1006.53
2023-02-23T10:02:31.720Z,1006.47
2023-02-23T10:03:31.593Z,1006.56
2023-02-23T10:04:31.681Z,1006.54
2023-02-23T10:05:31.552Z,1006.54
2023-02-23T10:06:31.583Z,1006.54
2023-02-23T10:07:31.559Z,1006.59
2023-02-23T10:08:32.145Z,1006.53
2023-02-23T10:09:31.576Z,1006.55
2023-02-23T10:10:31.559Z,1006.55
2023-02-23T10:11:31.509Z,1006.55
2023-02-23T10:12:31.509Z,1006.59
2023-02-23T10:13:31.485Z,1006.68
2023-02-23T10:14:31.478Z,1006.58
2023-02-23T10:15:31.510Z,1006.64
2023-02-23T10:16:31.448Z,1006.60
2023-02-23T10:17:31.436Z,1006.63
2023-02-23T10:18:45.779Z,1006.65
2023-02-23T10:19:32.421Z,1006.68
2023-02-23T10:20:31.433Z,1006.60
2023-02-23T10:21:31.413Z,1006.57
2023-02-23T10:22:31.391Z,1006.65
2023-02-23T10:23:31.581Z,1006.65
2023-02-23T10:24:31.432Z,1006.66
2023-02-23T10:25:31.352Z,1006.62
2023-02-23T10:26:31.331Z,1006.66
2023-02-23T10:27:31.325Z,1006.70
2023-02-23T10:28:32.212Z,1006.68
2023-02-23T10:29:32.660Z,1006.74
2023-02-23T10:30:31.386Z,1006.75
2023-02-23T10:31:31.437Z,1006.68
2023-02-23T10:32:31.307Z,1006.73
2023-02-23T10:33:31.345Z,1006.68
2023-02-23T10:34:31.253Z,1006.71
2023-02-23T10:35:31.224Z,1006.73
2023-02-23T10:36:31.208Z,1006.75
2023-02-23T10:37:31.626Z,1006.71
2023-02-23T10:38:31.210Z,1006.74
2023-02-23T10:39:31.183Z,1006.74
2023-02-23T10:40:31.171Z,1006.71
2023-02-23T10:41:32.162Z,1006.79
2023-02-23T10:42:31.146Z,1006.80
2023-02-23T10:43:32.155Z,1006.73
2023-02-23T10:44:31.105Z,1006.75
2023-02-23T10:45:31.106Z,1006.72
2023-02-23T10:46:31.185Z,1006.71
2023-02-23T10:47:31.143Z,1006.72
2023-02-23T10:48:31.098Z,1006.74
2023-02-23T10:49:31.124Z,1006.74
2023-02-23T10:50:31.098Z,1006.73
2023-02-23T10:51:31.134Z,1006.71
2023-02-23T10:52:32.596Z,1006.72
2023-02-23T10:53:31.068Z,1006.69
2023-02-23T10:54:31.005Z,1006.68
2023-02-23T10:55:31.061Z,1006.69
2023-02-23T10:56:30.987Z,1006.73
2023-02-23T10:57:31.022Z,1006.75
2023-02-23T10:58:31.047Z,1006.76
2023-02-23T10:59:30.971Z,1006.74
2023-02-23T11:00:30.956Z,1006.71
2023-02-23T11:01:30.960Z,1006.78
2023-02-23T11:02:31.066Z,1006.76
2023-02-23T11:03:30.925Z,1006.80
2023-02-23T11:04:30.993Z,1006.81
2023-02-23T11:05:30.906Z,1006.81
2023-02-23T11:06:30.906Z,1006.80
2023-02-23T11:07:30.857Z,1006.80
2023-02-23T11:08:31.646Z,1006.89
2023-02-23T11:09:45.090Z,1006.83
2023-02-23T11:10:31.830Z,1006.82
2023-02-23T11:11:30.851Z,1006.79
2023-02-23T11:12:30.847Z,1006.84
2023-02-23T11:13:30.806Z,1006.86
2023-02-23T11:14:30.825Z,1006.81
2023-02-23T11:15:48.193Z,1006.78
2023-02-23T11:16:31.812Z,1006.82
2023-02-23T11:17:30.784Z,1006.79
2023-02-23T11:18:30.810Z,1006.85
2023-02-23T11:19:30.749Z,1006.78
2023-02-23T11:20:30.710Z,1006.84
2023-02-23T11:21:30.704Z,1006.80
2023-02-23T11:22:30.744Z,1006.80
2023-02-23T11:23:30.667Z,1006.79
2023-02-23T11:24:30.664Z,1006.79
2023-02-23T11:25:30.677Z,1006.80
2023-02-23T11:26:30.671Z,1006.74
2023-02-23T11:27:30.619Z,1006.72
2023-02-23T11:28:30.631Z,1006.75
2023-02-23T11:29:30.635Z,1006.70
2023-02-23T11:30:30.633Z,1006.70
2023-02-23T11:31:30.612Z,1006.67
2023-02-23T11:32:30.731Z,1006.64
2023-02-23T11:33:30.572Z,1006.64
2023-02-23T11:34:30.535Z,1006.63
2023-02-23T11:35:30.564Z,1006.66
2023-02-23T11:36:30.538Z,1006.66
2023-02-23T11:37:30.539Z,1006.59
2023-02-23T11:38:30.548Z,1006.63
2023-02-23T11:39:30.477Z,1006.64
2023-02-23T11:40:30.464Z,1006.64
2023-02-23T11:41:30.476Z,1006.62
2023-02-23T11:42:30.452Z,1006.59
2023-02-23T11:43:30.520Z,1006.60
2023-02-23T11:44:30.452Z,1006.59
2023-02-23T11:45:30.406Z,1006.57
2023-02-23T11:46:30.538Z,1006.56
2023-02-23T11:47:30.416Z,1006.56
2023-02-23T11:48:30.409Z,1006.58
2023-02-23T11:49:30.403Z,1006.52
2023-02-23T11:50:30.383Z,1006.59
2023-02-23T11:51:30.361Z,1006.61
2023-02-23T11:52:30.367Z,1006.53
2023-02-23T11:53:30.312Z,1006.52
2023-02-23T11:54:30.492Z,1006.60
2023-02-23T11:55:30.318Z,1006.51
2023-02-23T11:56:30.337Z,1006.58
2023-02-23T11:57:30.281Z,1006.58
2023-02-23T11:58:30.271Z,1006.57
2023-02-23T11:59:30.294Z,1006.60
2023-02-23T12:00:30.269Z,1006.57
2023-02-23T12:01:30.252Z,1006.58
2023-02-23T12:02:31.192Z,1006.53
2023-02-23T12:03:30.216Z,1006.53
2023-02-23T12:04:30.252Z,1006.53
2023-02-23T12:05:30.202Z,1006.58
2023-02-23T12:06:30.449Z,1006.58
2023-02-23T12:07:31.139Z,1006.54